D. Carlos I — CTHJ — position and weather

sailwx.info

Track history (hours):
 
Tides and Currents Weather Stations Pressure Air Temp Water Temp Dewpoint Dewpoint Depression Visibility Wind Speed Wind Dir Waves Ship Positions

Oceanographic research ship D. Carlos I (Portugal)

Detailed information on ship capabilities available from University of Delaware's Ocean Information Center.

Last reported at 2020-Aug-10 08:22 UTC. Time now 2020-Sep-24 08:08 UTC.
Position N 38°40' W 009°09'.
Warning: this ship's position is 44 days out of date.

Length 69 m; draft 5.6 m.

MMSI: 263144000.

Date/timePositionNaut miles runAvg speedWind from/ knotsBaromVisibWave heightAir tempDewpointWater temp
2020-Aug-10 08:22N 38°40' W 009°09'15 1.9
2020-Aug-10 00:29N 38°28' W 009°20'9 7.4
2020-Aug-09 23:14N 38°22' W 009°12'9 2.9
2020-Aug-09 20:00N 38°13' W 009°15'12 7.9
2020-Aug-09 18:30N 38°02' W 009°22'16 8.0
2020-Aug-09 16:30N 37°49' W 009°33'12 8.2
2020-Aug-09 15:00N 37°39' W 009°42'4 1.4
2020-Aug-09 12:09N 37°36' W 009°46'5 1.7
2020-Aug-09 09:22N 37°40' W 009°43'1 0.6
2020-Aug-09 07:29N 37°39' W 009°44'5 5.6
2020-Aug-09 06:34N 37°44' W 009°43'10 4.6
2020-Aug-09 04:30N 37°42' W 009°32'27 5.3
2020-Aug-08 23:30N 37°46' W 008°58'7 7.4
2020-Aug-08 22:30N 37°53' W 008°57'4 3.6
2020-Aug-08 21:29N 37°55' W 008°53'0 0.0
2020-Aug-08 17:29N 37°55' W 008°53'0 0.0
2020-Aug-08 14:29N 37°55' W 008°53'0 0.0
2020-Aug-08 12:59N 37°55' W 008°53'0 0.0
2020-Aug-08 11:29N 37°55' W 008°53'0 0.0
2020-Aug-08 10:59N 37°55' W 008°53'0 0.0
2020-Aug-08 09:29N 37°55' W 008°53'0 0.0
2020-Aug-08 08:59N 37°55' W 008°53'2 2.5
2020-Aug-08 08:00N 37°55' W 008°56'26 8.7
2020-Aug-08 05:00N 37°53' W 009°29'8 8.4
2020-Aug-08 04:01N 37°53' W 009°39'4 8.5
2020-Aug-08 03:29N 37°53' W 009°45'4 8.7
2020-Aug-08 03:00N 37°53' W 009°50'16 8.1
2020-Aug-08 00:59N 37°53' W 010°11'  
2020-Aug-04 11:00N 38°10' W 024°07'13 8.8
2020-Aug-04 09:30N 38°14' W 024°24'5 8.2
2020-Aug-04 08:55N 38°15' W 024°29'3 8.2
2020-Aug-04 08:30N 38°15' W 024°34'29 8.1
2020-Aug-04 05:00N 38°20' W 025°10'9 9.0
2020-Aug-04 03:59N 38°21' W 025°21'107 8.3
2020-Aug-03 15:05N 38°24' W 027°37'18 8.4
2020-Aug-03 13:00N 38°31' W 027°58'17 8.5
2020-Aug-03 11:00N 38°37' W 028°18'7 7.1
2020-Aug-03 10:00N 38°38' W 028°27'4 8.1
2020-Aug-03 09:30N 38°35' W 028°31'4 8.8
2020-Aug-03 09:00N 38°32' W 028°35'  
Track history (hours):
 
Tides and Currents Weather Stations Pressure Air Temp Water Temp Dewpoint Dewpoint Depression Visibility Wind Speed Wind Dir Waves Ship Positions

Oceanographic research ship D. Carlos I (Portugal)

Detailed information on ship capabilities available from University of Delaware's Ocean Information Center.

Last reported at 2020-Aug-10 08:22 UTC. Time now 2020-Sep-24 08:08 UTC.
Position N 38°40' W 009°09'.
Warning: this ship's position is 44 days out of date.

Length 69 m; draft 5.6 m.

MMSI: 263144000.

Date/timePositionNaut miles runAvg speedWind from/ knotsBaromVisibWave heightAir tempDewpointWater temp
2020-Aug-10 08:22N 38°40' W 009°09'15 1.9
2020-Aug-10 00:29N 38°28' W 009°20'9 7.4
2020-Aug-09 23:14N 38°22' W 009°12'9 2.9
2020-Aug-09 20:00N 38°13' W 009°15'12 7.9
2020-Aug-09 18:30N 38°02' W 009°22'16 8.0
2020-Aug-09 16:30N 37°49' W 009°33'12 8.2
2020-Aug-09 15:00N 37°39' W 009°42'4 1.4
2020-Aug-09 12:09N 37°36' W 009°46'5 1.7
2020-Aug-09 09:22N 37°40' W 009°43'1 0.6
2020-Aug-09 07:29N 37°39' W 009°44'5 5.6
2020-Aug-09 06:34N 37°44' W 009°43'10 4.6
2020-Aug-09 04:30N 37°42' W 009°32'27 5.3
2020-Aug-08 23:30N 37°46' W 008°58'7 7.4
2020-Aug-08 22:30N 37°53' W 008°57'4 3.6
2020-Aug-08 21:29N 37°55' W 008°53'0 0.0
2020-Aug-08 17:29N 37°55' W 008°53'0 0.0
2020-Aug-08 14:29N 37°55' W 008°53'0 0.0
2020-Aug-08 12:59N 37°55' W 008°53'0 0.0
2020-Aug-08 11:29N 37°55' W 008°53'0 0.0
2020-Aug-08 10:59N 37°55' W 008°53'0 0.0
2020-Aug-08 09:29N 37°55' W 008°53'0 0.0
2020-Aug-08 08:59N 37°55' W 008°53'2 2.5
2020-Aug-08 08:00N 37°55' W 008°56'26 8.7
2020-Aug-08 05:00N 37°53' W 009°29'8 8.4
2020-Aug-08 04:01N 37°53' W 009°39'4 8.5
2020-Aug-08 03:29N 37°53' W 009°45'4 8.7
2020-Aug-08 03:00N 37°53' W 009°50'16 8.1
2020-Aug-08 00:59N 37°53' W 010°11'  
2020-Aug-04 11:00N 38°10' W 024°07'13 8.8
2020-Aug-04 09:30N 38°14' W 024°24'5 8.2
2020-Aug-04 08:55N 38°15' W 024°29'3 8.2
2020-Aug-04 08:30N 38°15' W 024°34'29 8.1
2020-Aug-04 05:00N 38°20' W 025°10'9 9.0
2020-Aug-04 03:59N 38°21' W 025°21'107 8.3
2020-Aug-03 15:05N 38°24' W 027°37'18 8.4
2020-Aug-03 13:00N 38°31' W 027°58'17 8.5
2020-Aug-03 11:00N 38°37' W 028°18'7 7.1
2020-Aug-03 10:00N 38°38' W 028°27'4 8.1
2020-Aug-03 09:30N 38°35' W 028°31'4 8.8
2020-Aug-03 09:00N 38°32' W 028°35'  

Dump ship's entire track history